sensor_id;sensor_type;location;lat;lon;timestamp;pressure;altitude;pressure_sealevel;temperature;humidity
79411;BME280;69635;50.964;6.948;2023-05-14T00:00:58;101373.97;;;11.41;84.04
79411;BME280;69635;50.964;6.948;2023-05-14T00:03:24;101369.53;;;11.40;84.12
79411;BME280;69635;50.964;6.948;2023-05-14T00:05:49;101369.53;;;11.39;84.30
79411;BME280;69635;50.964;6.948;2023-05-14T00:08:15;101375.72;;;11.41;84.23
79411;BME280;69635;50.964;6.948;2023-05-14T00:10:40;101373.09;;;11.39;86.50
79411;BME280;69635;50.964;6.948;2023-05-14T00:13:06;101368.63;;;11.37;87.23
79411;BME280;69635;50.964;6.948;2023-05-14T00:15:31;101373.03;;;11.33;85.92
79411;BME280;69635;50.964;6.948;2023-05-14T00:17:57;101375.63;;;11.27;87.54
79411;BME280;69635;50.964;6.948;2023-05-14T00:20:22;101375.63;;;11.26;87.93
79411;BME280;69635;50.964;6.948;2023-05-14T00:22:47;101366.78;;;11.18;85.66
79411;BME280;69635;50.964;6.948;2023-05-14T00:25:13;101372.06;;;11.18;85.75
79411;BME280;69635;50.964;6.948;2023-05-14T00:27:38;101366.78;;;11.16;86.76
79411;BME280;69635;50.964;6.948;2023-05-14T00:30:05;101368.53;;;11.14;85.68
79411;BME280;69635;50.964;6.948;2023-05-14T00:32:33;101372.91;;;11.12;85.49
79411;BME280;69635;50.964;6.948;2023-05-14T00:34:58;101374.66;;;11.07;85.65
79411;BME280;69635;50.964;6.948;2023-05-14T00:37:24;101366.66;;;11.03;85.84
79411;BME280;69635;50.964;6.948;2023-05-14T00:39:49;101368.41;;;10.96;87.49
79411;BME280;69635;50.964;6.948;2023-05-14T00:42:15;101363.06;;;10.92;87.28
79411;BME280;69635;50.964;6.948;2023-05-14T00:44:40;101366.59;;;10.89;87.11
79411;BME280;69635;50.964;6.948;2023-05-14T00:47:06;101366.59;;;10.91;86.30
79411;BME280;69635;50.964;6.948;2023-05-14T00:49:32;101366.59;;;10.91;85.92
79411;BME280;69635;50.964;6.948;2023-05-14T00:51:58;101356.84;;;10.88;87.04
79411;BME280;69635;50.964;6.948;2023-05-14T00:54:25;101356.84;;;10.88;87.24
79411;BME280;69635;50.964;6.948;2023-05-14T00:56:51;101348.91;;;10.88;86.36
79411;BME280;69635;50.964;6.948;2023-05-14T00:59:17;101343.63;;;10.90;87.78
79411;BME280;69635;50.964;6.948;2023-05-14T01:01:43;101346.28;;;10.87;87.99
79411;BME280;69635;50.964;6.948;2023-05-14T01:04:09;101344.53;;;10.89;88.27
79411;BME280;69635;50.964;6.948;2023-05-14T01:09:41;101345.34;;;10.82;88.08
79411;BME280;69635;50.964;6.948;2023-05-14T01:12:18;101347.09;;;10.80;87.28
79411;BME280;69635;50.964;6.948;2023-05-14T01:14:51;101349.75;;;10.81;87.44
79411;BME280;69635;50.964;6.948;2023-05-14T01:17:19;101341.81;;;10.78;86.90
79411;BME280;69635;50.964;6.948;2023-05-14T01:19:47;101338.25;;;10.72;87.82
79411;BME280;69635;50.964;6.948;2023-05-14T01:22:13;101340.00;;;10.73;87.29
79411;BME280;69635;50.964;6.948;2023-05-14T01:24:39;101340.00;;;10.76;87.03
79411;BME280;69635;50.964;6.948;2023-05-14T01:30:16;101341.75;;;10.72;87.43
79411;BME280;69635;50.964;6.948;2023-05-14T01:32:50;101331.16;;;10.72;87.29
79411;BME280;69635;50.964;6.948;2023-05-14T01:35:19;101337.34;;;10.74;88.97
79411;BME280;69635;50.964;6.948;2023-05-14T01:37:47;101338.25;;;10.72;87.55
79411;BME280;69635;50.964;6.948;2023-05-14T01:40:13;101329.41;;;10.73;87.54
79411;BME280;69635;50.964;6.948;2023-05-14T01:42:40;101322.31;;;10.70;88.27
79411;BME280;69635;50.964;6.948;2023-05-14T01:45:05;101325.84;;;10.66;88.66
79411;BME280;69635;50.964;6.948;2023-05-14T01:47:31;101331.16;;;10.67;88.23
79411;BME280;69635;50.964;6.948;2023-05-14T01:49:57;101321.41;;;10.63;88.19
79411;BME280;69635;50.964;6.948;2023-05-14T01:52:22;101324.94;;;10.62;87.54
79411;BME280;69635;50.964;6.948;2023-05-14T01:54:47;101321.38;;;10.59;87.97
79411;BME280;69635;50.964;6.948;2023-05-14T01:57:13;101315.22;;;10.58;88.24
79411;BME280;69635;50.964;6.948;2023-05-14T01:59:38;101322.25;;;10.58;87.90
79411;BME280;69635;50.964;6.948;2023-05-14T02:02:04;101330.19;;;10.59;88.96
79411;BME280;69635;50.964;6.948;2023-05-14T02:04:29;101319.59;;;10.55;88.43
79411;BME280;69635;50.964;6.948;2023-05-14T02:06:55;101304.56;;;10.52;88.91
79411;BME280;69635;50.964;6.948;2023-05-14T02:09:20;101314.28;;;10.53;88.76
79411;BME280;69635;50.964;6.948;2023-05-14T02:12:00;101315.16;;;10.54;89.15
79411;BME280;69635;50.964;6.948;2023-05-14T02:14:26;101308.03;;;10.47;89.44
79411;BME280;69635;50.964;6.948;2023-05-14T02:16:51;101315.16;;;10.52;90.69
79411;BME280;69635;50.964;6.948;2023-05-14T02:19:16;101300.94;;;10.38;88.12
79411;BME280;69635;50.964;6.948;2023-05-14T02:21:42;101313.31;;;10.44;89.28
79411;BME280;69635;50.964;6.948;2023-05-14T02:24:07;101308.91;;;10.43;88.69
79411;BME280;69635;50.964;6.948;2023-05-14T02:26:33;101306.28;;;10.43;90.51
79411;BME280;69635;50.964;6.948;2023-05-14T02:28:58;101303.59;;;10.40;89.89
79411;BME280;69635;50.964;6.948;2023-05-14T02:31:23;101301.81;;;10.37;89.71
79411;BME280;69635;50.964;6.948;2023-05-14T02:33:49;101296.53;;;10.37;90.87
79411;BME280;69635;50.964;6.948;2023-05-14T02:36:14;101295.66;;;10.38;90.93
79411;BME280;69635;50.964;6.948;2023-05-14T02:38:40;101290.31;;;10.32;89.48
79411;BME280;69635;50.964;6.948;2023-05-14T02:41:05;101287.69;;;10.32;89.53
79411;BME280;69635;50.964;6.948;2023-05-14T02:43:30;101292.06;;;10.32;91.15
79411;BME280;69635;50.964;6.948;2023-05-14T02:45:56;101289.38;;;10.27;90.14
79411;BME280;69635;50.964;6.948;2023-05-14T02:48:21;101294.66;;;10.26;89.30
79411;BME280;69635;50.964;6.948;2023-05-14T02:50:48;101303.41;;;10.19;90.34
79411;BME280;69635;50.964;6.948;2023-05-14T02:53:15;101298.13;;;10.17;90.24
79411;BME280;69635;50.964;6.948;2023-05-14T02:55:41;101301.66;;;10.18;91.54
79411;BME280;69635;50.964;6.948;2023-05-14T02:58:06;101310.41;;;10.12;90.16
79411;BME280;69635;50.964;6.948;2023-05-14T03:00:31;101312.16;;;10.09;90.16
79411;BME280;69635;50.964;6.948;2023-05-14T03:02:57;101305.84;;;10.02;90.09
79411;BME280;69635;50.964;6.948;2023-05-14T03:05:22;101309.38;;;10.01;90.27
79411;BME280;69635;50.964;6.948;2023-05-14T03:07:50;101308.44;;;9.95;90.59
79411;BME280;69635;50.964;6.948;2023-05-14T03:10:15;101312.84;;;9.93;90.56
79411;BME280;69635;50.964;6.948;2023-05-14T03:12:41;101297.72;;;9.83;90.59
79411;BME280;69635;50.964;6.948;2023-05-14T03:15:07;101318.97;;;9.90;90.01
79411;BME280;69635;50.964;6.948;2023-05-14T03:17:32;101317.16;;;9.86;89.63
79411;BME280;69635;50.964;6.948;2023-05-14T03:19:58;101313.56;;;9.80;89.14
79411;BME280;69635;50.964;6.948;2023-05-14T03:22:23;101314.41;;;9.76;88.81
79411;BME280;69635;50.964;6.948;2023-05-14T03:24:49;101311.75;;;9.77;88.81
79411;BME280;69635;50.964;6.948;2023-05-14T03:27:14;101312.63;;;9.75;88.85
79411;BME280;69635;50.964;6.948;2023-05-14T03:29:40;101305.56;;;9.74;89.07
79411;BME280;69635;50.964;6.948;2023-05-14T03:32:05;101303.72;;;9.65;89.72
79411;BME280;69635;50.964;6.948;2023-05-14T03:34:31;101307.22;;;9.62;89.66
79411;BME280;69635;50.964;6.948;2023-05-14T03:36:56;101309.81;;;9.59;90.07
79411;BME280;69635;50.964;6.948;2023-05-14T03:39:22;101310.69;;;9.57;90.03
79411;BME280;69635;50.964;6.948;2023-05-14T03:41:48;101315.03;;;9.53;89.22
79411;BME280;69635;50.964;6.948;2023-05-14T03:44:13;101314.97;;;9.49;89.55
79411;BME280;69635;50.964;6.948;2023-05-14T03:46:39;101305.34;;;9.52;90.14
79411;BME280;69635;50.964;6.948;2023-05-14T03:49:05;101303.59;;;9.54;89.27
79411;BME280;69635;50.964;6.948;2023-05-14T03:51:31;101302.75;;;9.55;90.88
79411;BME280;69635;50.964;6.948;2023-05-14T03:53:56;101309.75;;;9.53;89.90
79411;BME280;69635;50.964;6.948;2023-05-14T03:56:23;101313.22;;;9.48;89.90
79411;BME280;69635;50.964;6.948;2023-05-14T03:58:48;101316.69;;;9.45;89.59
79411;BME280;69635;50.964;6.948;2023-05-14T04:01:14;101312.31;;;9.47;90.18
79411;BME280;69635;50.964;6.948;2023-05-14T04:03:39;101311.38;;;9.42;89.83
79411;BME280;69635;50.964;6.948;2023-05-14T04:06:05;101309.66;;;9.43;89.35
79411;BME280;69635;50.964;6.948;2023-05-14T04:08:30;101305.22;;;9.42;89.86
79411;BME280;69635;50.964;6.948;2023-05-14T04:10:55;101312.22;;;9.41;90.14
79411;BME280;69635;50.964;6.948;2023-05-14T04:13:21;101300.75;;;9.38;89.45
79411;BME280;69635;50.964;6.948;2023-05-14T04:15:46;101307.88;;;9.45;89.85
79411;BME280;69635;50.964;6.948;2023-05-14T04:18:12;101307.88;;;9.43;89.34
79411;BME280;69635;50.964;6.948;2023-05-14T04:20:37;101310.56;;;9.46;89.31
79411;BME280;69635;50.964;6.948;2023-05-14T04:23:02;101304.38;;;9.46;91.19
79411;BME280;69635;50.964;6.948;2023-05-14T04:25:28;101303.50;;;9.47;89.75
79411;BME280;69635;50.964;6.948;2023-05-14T04:27:54;101306.13;;;9.45;89.66
79411;BME280;69635;50.964;6.948;2023-05-14T04:30:19;101302.66;;;9.48;90.24
79411;BME280;69635;50.964;6.948;2023-05-14T04:32:45;101303.56;;;9.48;90.01
79411;BME280;69635;50.964;6.948;2023-05-14T04:35:10;101307.97;;;9.51;89.20
79411;BME280;69635;50.964;6.948;2023-05-14T04:37:37;101307.16;;;9.56;90.50
79411;BME280;69635;50.964;6.948;2023-05-14T04:40:04;101301.94;;;9.62;90.48
79411;BME280;69635;50.964;6.948;2023-05-14T04:42:30;101304.63;;;9.67;90.04
79411;BME280;69635;50.964;6.948;2023-05-14T04:44:55;101311.72;;;9.70;91.32
79411;BME280;69635;50.964;6.948;2023-05-14T04:47:20;101315.22;;;9.70;90.33
79411;BME280;69635;50.964;6.948;2023-05-14T04:49:46;101314.38;;;9.71;89.84
79411;BME280;69635;50.964;6.948;2023-05-14T04:52:12;101301.16;;;9.73;90.48
79411;BME280;69635;50.964;6.948;2023-05-14T04:54:38;101300.34;;;9.78;91.76
79411;BME280;69635;50.964;6.948;2023-05-14T04:57:03;101303.81;;;9.76;90.56
79411;BME280;69635;50.964;6.948;2023-05-14T04:59:30;101309.13;;;9.77;89.34
79411;BME280;69635;50.964;6.948;2023-05-14T05:01:55;101305.63;;;9.80;89.33
79411;BME280;69635;50.964;6.948;2023-05-14T05:04:22;101306.53;;;9.82;90.29
79411;BME280;69635;50.964;6.948;2023-05-14T05:06:49;101311.00;;;9.86;91.07
79411;BME280;69635;50.964;6.948;2023-05-14T05:09:14;101304.84;;;9.90;90.85
79411;BME280;69635;50.964;6.948;2023-05-14T05:11:40;101302.28;;;9.94;90.37
79411;BME280;69635;50.964;6.948;2023-05-14T05:14:05;101308.53;;;10.04;91.29
79411;BME280;69635;50.964;6.948;2023-05-14T05:16:31;101311.22;;;10.07;89.99
79411;BME280;69635;50.964;6.948;2023-05-14T05:18:56;101298.88;;;10.07;90.01
79411;BME280;69635;50.964;6.948;2023-05-14T05:21:22;101298.09;;;10.16;90.52
79411;BME280;69635;50.964;6.948;2023-05-14T05:23:47;101304.31;;;10.21;88.85
79411;BME280;69635;50.964;6.948;2023-05-14T05:26:13;101310.50;;;10.23;89.79
79411;BME280;69635;50.964;6.948;2023-05-14T05:28:38;101301.75;;;10.28;88.96
79411;BME280;69635;50.964;6.948;2023-05-14T05:31:04;101307.97;;;10.36;89.70
79411;BME280;69635;50.964;6.948;2023-05-14T05:33:29;101301.84;;;10.40;90.22
79411;BME280;69635;50.964;6.948;2023-05-14T05:35:55;101305.41;;;10.47;89.82
79411;BME280;69635;50.964;6.948;2023-05-14T05:38:20;101310.75;;;10.53;89.48
79411;BME280;69635;50.964;6.948;2023-05-14T05:40:45;101314.34;;;10.61;88.40
79411;BME280;69635;50.964;6.948;2023-05-14T05:43:12;101304.69;;;10.64;88.66
79411;BME280;69635;50.964;6.948;2023-05-14T05:45:38;101307.41;;;10.78;87.53
79411;BME280;69635;50.964;6.948;2023-05-14T05:48:03;101315.41;;;10.89;87.95
79411;BME280;69635;50.964;6.948;2023-05-14T05:50:29;101312.81;;;11.02;87.58
79411;BME280;69635;50.964;6.948;2023-05-14T05:52:56;101318.16;;;11.08;87.12
79411;BME280;69635;50.964;6.948;2023-05-14T05:55:23;101319.13;;;11.16;86.90
79411;BME280;69635;50.964;6.948;2023-05-14T05:57:48;101320.06;;;11.29;87.03
79411;BME280;69635;50.964;6.948;2023-05-14T06:00:14;101319.22;;;11.36;86.55
79411;BME280;69635;50.964;6.948;2023-05-14T06:02:41;101317.47;;;11.44;86.10
79411;BME280;69635;50.964;6.948;2023-05-14T06:05:07;101323.66;;;11.50;86.03
79411;BME280;69635;50.964;6.948;2023-05-14T06:07:33;101323.66;;;11.50;85.39
79411;BME280;69635;50.964;6.948;2023-05-14T06:09:59;101328.97;;;11.55;85.01
79411;BME280;69635;50.964;6.948;2023-05-14T06:12:24;101323.69;;;11.58;85.58
79411;BME280;69635;50.964;6.948;2023-05-14T06:14:50;101315.78;;;11.61;85.44
79411;BME280;69635;50.964;6.948;2023-05-14T06:17:15;101319.34;;;11.69;85.39
79411;BME280;69635;50.964;6.948;2023-05-14T06:19:41;101321.09;;;11.68;84.64
79411;BME280;69635;50.964;6.948;2023-05-14T06:22:06;101327.34;;;11.73;85.16
79411;BME280;69635;50.964;6.948;2023-05-14T06:24:31;101331.75;;;11.84;84.61
79411;BME280;69635;50.964;6.948;2023-05-14T06:26:57;101319.38;;;11.81;84.35
79411;BME280;69635;50.964;6.948;2023-05-14T06:29:23;101330.91;;;11.91;84.65
79411;BME280;69635;50.964;6.948;2023-05-14T06:31:49;101322.94;;;11.95;84.30
79411;BME280;69635;50.964;6.948;2023-05-14T06:34:14;101326.50;;;12.00;84.10
79411;BME280;69635;50.964;6.948;2023-05-14T06:36:39;101323.84;;;12.06;84.19
79411;BME280;69635;50.964;6.948;2023-05-14T06:39:05;101317.69;;;12.16;83.72
79411;BME280;69635;50.964;6.948;2023-05-14T06:41:30;101310.59;;;12.24;83.57
79411;BME280;69635;50.964;6.948;2023-05-14T06:43:56;101319.44;;;12.29;83.65
79411;BME280;69635;50.964;6.948;2023-05-14T06:46:22;101315.03;;;12.40;83.11
79411;BME280;69635;50.964;6.948;2023-05-14T06:48:47;101321.22;;;12.45;83.01
79411;BME280;69635;50.964;6.948;2023-05-14T06:51:13;101314.16;;;12.49;83.32
79411;BME280;69635;50.964;6.948;2023-05-14T06:53:39;101308.84;;;12.56;82.74
79411;BME280;69635;50.964;6.948;2023-05-14T06:56:05;101307.94;;;12.69;82.49
79411;BME280;69635;50.964;6.948;2023-05-14T06:58:30;101311.47;;;12.79;81.59
79411;BME280;69635;50.964;6.948;2023-05-14T07:00:57;101309.69;;;12.82;82.17
79411;BME280;69635;50.964;6.948;2023-05-14T07:03:22;101317.66;;;12.89;81.57
79411;BME280;69635;50.964;6.948;2023-05-14T07:05:48;101307.88;;;12.95;80.94
79411;BME280;69635;50.964;6.948;2023-05-14T07:08:13;101309.69;;;13.07;80.07
79411;BME280;69635;50.964;6.948;2023-05-14T07:10:38;101312.31;;;13.14;80.44
79411;BME280;69635;50.964;6.948;2023-05-14T07:13:04;101313.16;;;13.22;79.90
79411;BME280;69635;50.964;6.948;2023-05-14T07:15:30;101305.19;;;13.25;79.16
79411;BME280;69635;50.964;6.948;2023-05-14T07:17:55;101314.91;;;13.31;79.43
79411;BME280;69635;50.964;6.948;2023-05-14T07:20:21;101315.81;;;13.28;78.82
79411;BME280;69635;50.964;6.948;2023-05-14T07:22:48;101310.47;;;13.31;79.33
79411;BME280;69635;50.964;6.948;2023-05-14T07:25:13;101310.47;;;13.36;78.80
79411;BME280;69635;50.964;6.948;2023-05-14T07:27:39;101311.31;;;13.42;78.42
79411;BME280;69635;50.964;6.948;2023-05-14T07:30:05;101313.03;;;13.52;78.27
79411;BME280;69635;50.964;6.948;2023-05-14T07:32:31;101297.06;;;13.58;76.72
79411;BME280;69635;50.964;6.948;2023-05-14T07:34:56;101302.31;;;13.72;76.11
79411;BME280;69635;50.964;6.948;2023-05-14T07:37:22;101294.25;;;13.85;75.48
79411;BME280;69635;50.964;6.948;2023-05-14T07:39:50;101295.09;;;13.92;73.58
79411;BME280;69635;50.964;6.948;2023-05-14T07:42:15;101287.09;;;13.97;73.95
79411;BME280;69635;50.964;6.948;2023-05-14T07:44:40;101285.22;;;14.12;71.34
79411;BME280;69635;50.964;6.948;2023-05-14T07:47:06;101284.31;;;14.15;72.62
79411;BME280;69635;50.964;6.948;2023-05-14T07:49:33;101280.69;;;14.23;71.43
79411;BME280;69635;50.964;6.948;2023-05-14T07:51:58;101284.25;;;14.27;73.16
79411;BME280;69635;50.964;6.948;2023-05-14T07:54:24;101280.69;;;14.31;73.56
79411;BME280;69635;50.964;6.948;2023-05-14T07:56:49;101283.31;;;14.34;71.74
79411;BME280;69635;50.964;6.948;2023-05-14T07:59:15;101280.59;;;14.41;70.50
79411;BME280;69635;50.964;6.948;2023-05-14T08:01:40;101283.16;;;14.47;70.73
79411;BME280;69635;50.964;6.948;2023-05-14T08:04:06;101287.50;;;14.59;70.07
79411;BME280;69635;50.964;6.948;2023-05-14T08:06:32;101287.47;;;14.63;71.06
79411;BME280;69635;50.964;6.948;2023-05-14T08:08:58;101290.91;;;14.74;68.82
79411;BME280;69635;50.964;6.948;2023-05-14T08:11:23;101289.94;;;14.81;68.81
79411;BME280;69635;50.964;6.948;2023-05-14T08:13:51;101288.09;;;14.88;69.45
79411;BME280;69635;50.964;6.948;2023-05-14T08:16:17;101296.91;;;14.96;68.44
79411;BME280;69635;50.964;6.948;2023-05-14T08:18:42;101294.19;;;15.02;69.08
79411;BME280;69635;50.964;6.948;2023-05-14T08:21:08;101291.19;;;15.28;66.68
79411;BME280;69635;50.964;6.948;2023-05-14T08:23:33;101283.94;;;15.42;65.33
79411;BME280;69635;50.964;6.948;2023-05-14T08:25:58;101285.69;;;15.44;66.41
79411;BME280;69635;50.964;6.948;2023-05-14T08:28:24;101288.28;;;15.49;66.19
79411;BME280;69635;50.964;6.948;2023-05-14T08:30:49;101287.31;;;15.56;63.85
79411;BME280;69635;50.964;6.948;2023-05-14T08:33:15;101283.75;;;15.57;64.97
79411;BME280;69635;50.964;6.948;2023-05-14T08:35:42;101271.31;;;15.57;66.42
79411;BME280;69635;50.964;6.948;2023-05-14T08:38:07;101280.03;;;15.70;64.76
79411;BME280;69635;50.964;6.948;2023-05-14T08:40:33;101276.44;;;15.71;66.36
79411;BME280;69635;50.964;6.948;2023-05-14T08:42:59;101276.38;;;15.74;65.33
79411;BME280;69635;50.964;6.948;2023-05-14T08:45:30;101272.75;;;15.79;62.99
79411;BME280;69635;50.964;6.948;2023-05-14T08:47:59;101271.84;;;15.82;63.19
79411;BME280;69635;50.964;6.948;2023-05-14T08:50:25;101274.28;;;15.95;61.72
79411;BME280;69635;50.964;6.948;2023-05-14T08:52:54;101274.22;;;16.02;60.85
79411;BME280;69635;50.964;6.948;2023-05-14T08:55:19;101260.84;;;16.03;62.57
79411;BME280;69635;50.964;6.948;2023-05-14T08:57:45;101259.75;;;16.16;59.25
79411;BME280;69635;50.964;6.948;2023-05-14T09:00:11;101257.06;;;16.18;61.60
79411;BME280;69635;50.964;6.948;2023-05-14T09:02:38;101256.97;;;16.24;60.78
79411;BME280;69635;50.964;6.948;2023-05-14T09:05:05;101256.69;;;16.39;60.49
79411;BME280;69635;50.964;6.948;2023-05-14T09:07:32;101260.13;;;16.45;60.36
79411;BME280;69635;50.964;6.948;2023-05-14T09:09:58;101257.34;;;16.53;58.15
79411;BME280;69635;50.964;6.948;2023-05-14T09:12:23;101249.25;;;16.59;55.86
79411;BME280;69635;50.964;6.948;2023-05-14T09:14:50;101256.13;;;16.70;55.42
79411;BME280;69635;50.964;6.948;2023-05-14T09:17:16;101262.34;;;16.72;58.10
79411;BME280;69635;50.964;6.948;2023-05-14T09:19:42;101260.38;;;16.82;56.13
79411;BME280;69635;50.964;6.948;2023-05-14T09:22:13;101250.31;;;16.96;53.82
79411;BME280;69635;50.964;6.948;2023-05-14T09:24:39;101253.78;;;17.01;54.21
79411;BME280;69635;50.964;6.948;2023-05-14T09:27:06;101257.16;;;17.11;56.55
79411;BME280;69635;50.964;6.948;2023-05-14T09:29:32;101247.25;;;17.16;56.66
79411;BME280;69635;50.964;6.948;2023-05-14T09:31:58;101245.38;;;17.19;54.67
79411;BME280;69635;50.964;6.948;2023-05-14T09:34:28;101240.03;;;17.19;55.66
79411;BME280;69635;50.964;6.948;2023-05-14T09:37:02;101239.19;;;17.17;54.63
79411;BME280;69635;50.964;6.948;2023-05-14T09:39:28;101238.06;;;17.29;53.97
79411;BME280;69635;50.964;6.948;2023-05-14T09:41:54;101231.50;;;17.42;52.56
79411;BME280;69635;50.964;6.948;2023-05-14T09:44:21;101226.97;;;17.48;53.94
79411;BME280;69635;50.964;6.948;2023-05-14T09:46:47;101230.47;;;17.52;55.78
79411;BME280;69635;50.964;6.948;2023-05-14T09:49:13;101217.03;;;17.53;53.71
79411;BME280;69635;50.964;6.948;2023-05-14T09:51:38;101225.94;;;17.54;54.77
79411;BME280;69635;50.964;6.948;2023-05-14T09:54:04;101202.81;;;17.51;53.50
79411;BME280;69635;50.964;6.948;2023-05-14T09:56:31;101215.94;;;17.62;54.36
79411;BME280;69635;50.964;6.948;2023-05-14T09:58:57;101213.78;;;17.79;55.24
79411;BME280;69635;50.964;6.948;2023-05-14T10:01:23;101214.31;;;17.93;54.74
79411;BME280;69635;50.964;6.948;2023-05-14T10:03:49;101222.19;;;18.00;53.11
79411;BME280;69635;50.964;6.948;2023-05-14T10:06:16;101214.97;;;18.02;52.27
79411;BME280;69635;50.964;6.948;2023-05-14T10:08:44;101214.78;;;18.10;52.42
79411;BME280;69635;50.964;6.948;2023-05-14T10:11:14;101209.59;;;18.02;51.80
79411;BME280;69635;50.964;6.948;2023-05-14T10:14:08;101202.31;;;18.09;52.81
79411;BME280;69635;50.964;6.948;2023-05-14T10:16:34;101201.19;;;18.18;53.24
79411;BME280;69635;50.964;6.948;2023-05-14T10:19:11;101202.81;;;18.58;52.62
79411;BME280;69635;50.964;6.948;2023-05-14T10:21:40;101193.50;;;18.73;51.35
79411;BME280;69635;50.964;6.948;2023-05-14T10:24:06;101197.22;;;18.67;51.14
79411;BME280;69635;50.964;6.948;2023-05-14T10:26:39;101187.97;;;18.79;51.13
79411;BME280;69635;50.964;6.948;2023-05-14T10:29:06;101193.06;;;18.88;50.40
79411;BME280;69635;50.964;6.948;2023-05-14T10:31:53;101198.84;;;18.73;49.59
79411;BME280;69635;50.964;6.948;2023-05-14T10:34:35;101178.38;;;18.70;50.07
79411;BME280;69635;50.964;6.948;2023-05-14T10:37:24;101180.72;;;18.82;49.21
79411;BME280;69635;50.964;6.948;2023-05-14T10:39:57;101184.88;;;18.92;48.92
79411;BME280;69635;50.964;6.948;2023-05-14T10:42:26;101172.78;;;19.08;47.45
79411;BME280;69635;50.964;6.948;2023-05-14T10:45:21;101179.72;;;19.16;47.60
79411;BME280;69635;50.964;6.948;2023-05-14T10:47:47;101168.13;;;19.15;49.37
79411;BME280;69635;50.964;6.948;2023-05-14T10:50:14;101170.78;;;19.15;49.80
79411;BME280;69635;50.964;6.948;2023-05-14T10:52:43;101168.81;;;19.22;50.87
79411;BME280;69635;50.964;6.948;2023-05-14T10:55:14;101155.81;;;19.39;49.60
79411;BME280;69635;50.964;6.948;2023-05-14T10:57:43;101168.25;;;19.69;47.65
79411;BME280;69635;50.964;6.948;2023-05-14T11:00:10;101164.59;;;19.71;47.39
79411;BME280;69635;50.964;6.948;2023-05-14T11:02:36;101156.50;;;19.73;47.18
79411;BME280;69635;50.964;6.948;2023-05-14T11:05:03;101153.31;;;20.14;48.59
79411;BME280;69635;50.964;6.948;2023-05-14T11:09:59;101142.34;;;20.94;46.90
79411;BME280;69635;50.964;6.948;2023-05-14T11:12:25;101131.66;;;20.92;43.93
79411;BME280;69635;50.964;6.948;2023-05-14T11:14:52;101136.22;;;20.90;44.88
79411;BME280;69635;50.964;6.948;2023-05-14T11:17:21;101128.09;;;21.15;45.12
79411;BME280;69635;50.964;6.948;2023-05-14T11:19:46;101131.81;;;21.13;44.06
79411;BME280;69635;50.964;6.948;2023-05-14T11:22:11;101143.38;;;20.91;44.30
79411;BME280;69635;50.964;6.948;2023-05-14T11:24:39;101130.44;;;20.29;45.89
79411;BME280;69635;50.964;6.948;2023-05-14T11:27:09;101135.06;;;20.25;47.06
79411;BME280;69635;50.964;6.948;2023-05-14T11:29:36;101123.75;;;20.40;47.51
79411;BME280;69635;50.964;6.948;2023-05-14T11:32:05;101121.84;;;20.68;47.41
79411;BME280;69635;50.964;6.948;2023-05-14T11:34:31;101129.16;;;20.88;47.36
79411;BME280;69635;50.964;6.948;2023-05-14T11:36:57;101122.53;;;20.73;46.60
79411;BME280;69635;50.964;6.948;2023-05-14T11:39:22;101124.78;;;20.61;42.65
79411;BME280;69635;50.964;6.948;2023-05-14T11:41:47;101123.97;;;20.59;45.41
79411;BME280;69635;50.964;6.948;2023-05-14T11:44:13;101112.47;;;20.78;45.13
79411;BME280;69635;50.964;6.948;2023-05-14T11:46:39;101117.09;;;20.75;44.36
79411;BME280;69635;50.964;6.948;2023-05-14T11:49:05;101113.47;;;20.51;39.14
79411;BME280;69635;50.964;6.948;2023-05-14T11:51:31;101113.72;;;20.45;40.28
79411;BME280;69635;50.964;6.948;2023-05-14T11:53:57;101081.38;;;20.71;41.40
79411;BME280;69635;50.964;6.948;2023-05-14T11:56:25;101095.03;;;20.88;41.53
79411;BME280;69635;50.964;6.948;2023-05-14T11:58:57;101098.09;;;21.02;40.14
79411;BME280;69635;50.964;6.948;2023-05-14T12:01:22;101087.13;;;21.08;38.46
79411;BME280;69635;50.964;6.948;2023-05-14T12:03:49;101088.22;;;21.03;39.39
79411;BME280;69635;50.964;6.948;2023-05-14T12:06:14;101084.69;;;20.55;38.91
79411;BME280;69635;50.964;6.948;2023-05-14T12:08:39;101078.63;;;20.73;40.39
79411;BME280;69635;50.964;6.948;2023-05-14T12:11:05;101085.88;;;20.94;40.12
79411;BME280;69635;50.964;6.948;2023-05-14T12:13:31;101079.50;;;21.20;43.30
79411;BME280;69635;50.964;6.948;2023-05-14T12:16:00;101076.75;;;21.21;42.30
79411;BME280;69635;50.964;6.948;2023-05-14T12:18:29;101079.22;;;21.27;42.62
79411;BME280;69635;50.964;6.948;2023-05-14T12:20:55;101069.09;;;21.10;42.03
79411;BME280;69635;50.964;6.948;2023-05-14T12:23:27;101060.06;;;21.13;41.39
79411;BME280;69635;50.964;6.948;2023-05-14T12:25:52;101056.03;;;21.23;41.49
79411;BME280;69635;50.964;6.948;2023-05-14T12:28:18;101055.91;;;21.26;41.34
79411;BME280;69635;50.964;6.948;2023-05-14T12:30:44;101064.50;;;21.36;42.99
79411;BME280;69635;50.964;6.948;2023-05-14T12:33:10;101062.34;;;21.44;41.19
79411;BME280;69635;50.964;6.948;2023-05-14T12:35:36;101052.31;;;21.27;38.49
79411;BME280;69635;50.964;6.948;2023-05-14T12:38:02;101057.97;;;20.96;34.33
79411;BME280;69635;50.964;6.948;2023-05-14T12:40:28;101052.44;;;21.01;34.09
79411;BME280;69635;50.964;6.948;2023-05-14T12:42:53;101043.94;;;21.11;34.56
79411;BME280;69635;50.964;6.948;2023-05-14T12:45:18;101037.06;;;21.04;33.96
79411;BME280;69635;50.964;6.948;2023-05-14T12:47:44;101041.53;;;21.05;33.32
79411;BME280;69635;50.964;6.948;2023-05-14T12:50:10;101035.34;;;21.25;33.17
79411;BME280;69635;50.964;6.948;2023-05-14T12:52:36;101027.50;;;21.41;33.06
79411;BME280;69635;50.964;6.948;2023-05-14T12:55:01;101042.34;;;21.29;30.06
79411;BME280;69635;50.964;6.948;2023-05-14T12:57:26;101026.81;;;21.14;29.68